createdAt,value
2018-01-06T20:13:09.066Z,7.20
2018-01-06T20:15:38.335Z,7.10
2018-01-06T20:18:06.486Z,7.10
2018-01-06T20:20:36.944Z,7.00
2018-01-06T20:23:05.119Z,6.90
2018-01-06T20:25:33.557Z,7.00
2018-01-06T20:28:02.598Z,6.90
2018-01-06T20:30:32.042Z,6.90
2018-01-06T20:33:00.192Z,7.00
2018-01-06T20:35:28.361Z,7.00
2018-01-06T20:37:56.541Z,7.10
2018-01-06T20:40:25.644Z,7.10
2018-01-06T20:42:54.022Z,7.10
2018-01-06T20:45:23.608Z,7.10
2018-01-06T20:47:52.088Z,7.10
2018-01-06T20:50:20.261Z,7.20
2018-01-06T20:52:48.397Z,7.20
2018-01-06T20:55:17.331Z,7.20
2018-01-06T20:57:45.472Z,7.20
2018-01-06T21:00:14.416Z,7.20
2018-01-06T21:02:42.542Z,7.20
2018-01-06T21:05:10.705Z,7.20
2018-01-06T21:07:39.617Z,7.20
2018-01-06T21:10:07.805Z,7.30
2018-01-06T21:12:35.956Z,7.30
2018-01-06T21:15:04.904Z,7.20
2018-01-06T21:17:33.071Z,7.20
2018-01-06T21:20:01.243Z,7.30
2018-01-06T21:22:30.209Z,7.70
2018-01-06T21:24:58.383Z,7.70
2018-01-06T21:27:26.531Z,7.70
2018-01-06T21:29:54.769Z,7.70
2018-01-06T21:32:22.918Z,7.80
2018-01-06T21:34:51.089Z,7.80
2018-01-06T21:37:19.240Z,7.70
2018-01-06T21:39:47.433Z,7.70
2018-01-06T21:42:16.412Z,7.60
2018-01-06T21:44:44.581Z,7.60
2018-01-06T21:47:12.750Z,7.60
2018-01-06T21:49:41.663Z,7.60
2018-01-06T21:52:09.820Z,7.60
2018-01-06T21:54:37.983Z,7.50
2018-01-06T21:57:06.933Z,7.50
2018-01-06T21:59:35.118Z,7.50
2018-01-06T22:02:03.280Z,7.60
2018-01-06T22:04:31.418Z,7.50
2018-01-06T22:06:59.589Z,7.50
2018-01-06T22:09:27.752Z,7.50
2018-01-06T22:11:56.676Z,7.20
2018-01-06T22:14:24.841Z,7.20
2018-01-06T22:16:53.304Z,7.10
2018-01-06T22:19:22.316Z,7.20
2018-01-06T22:21:50.589Z,7.20
2018-01-06T22:24:18.761Z,7.10
2018-01-06T22:26:46.984Z,6.90
2018-01-06T22:29:15.925Z,7.20
2018-01-06T22:31:44.132Z,7.10
2018-01-06T22:34:12.293Z,7.10
2018-01-06T22:36:40.467Z,7.10
2018-01-06T22:39:08.623Z,7.10
2018-01-06T22:41:36.803Z,7.10
2018-01-06T22:44:05.052Z,7.10
2018-01-06T22:46:33.974Z,7.10
2018-01-06T22:49:02.165Z,7.10
2018-01-06T22:51:30.323Z,7.10
2018-01-06T22:53:58.461Z,7.10
2018-01-06T22:56:27.391Z,6.80
2018-01-06T22:58:55.537Z,6.70
2018-01-06T23:01:24.054Z,6.70
2018-01-06T23:03:52.199Z,6.70
2018-01-06T23:06:20.374Z,6.70
2018-01-06T23:08:48.548Z,6.60
2018-01-06T23:11:16.722Z,6.50
2018-01-06T23:13:44.974Z,6.40
2018-01-06T23:16:13.171Z,6.30
2018-01-06T23:18:42.082Z,6.40
2018-01-06T23:21:10.244Z,6.30
2018-01-06T23:23:38.396Z,6.30
2018-01-06T23:26:06.618Z,6.30
2018-01-06T23:28:34.753Z,6.20
2018-01-06T23:31:03.772Z,6.20
2018-01-06T23:33:31.951Z,6.10
2018-01-06T23:36:00.134Z,6.20
2018-01-06T23:38:28.281Z,6.20
2018-01-06T23:40:56.480Z,6.20
2018-01-06T23:43:25.740Z,6.10
2018-01-06T23:45:54.652Z,6.00
2018-01-06T23:48:22.788Z,6.00
2018-01-06T23:50:50.957Z,6.00
2018-01-06T23:53:19.088Z,6.00
2018-01-06T23:55:47.249Z,5.90
2018-01-06T23:58:15.383Z,5.90
